Time,TemperatureF,DewpointF,PressureIn,WindDirection,WindDirectionDegrees,WindSpeedMPH,WindSpeedGustMPH,Humidity,HourlyPrecipIn,Conditions,Clouds,dailyrainin,SoftwareType,DateUTC
2013-03-03 00:00:00,3.9,-1.2,30.11,NNW,337,0.0,0.0,79,0.00,,,0.00,WUHU21623XXSP,2013-03-03 06:00:00,
2013-03-03 00:05:00,3.9,-1.2,30.10,NNW,337,0.0,0.0,79,0.00,,,0.00,WUHU21623XXSP,2013-03-03 06:05:00,
2013-03-03 00:10:00,4.3,-0.9,30.11,NNW,337,0.0,0.0,79,0.00,,,0.00,WUHU21623XXSP,2013-03-03 06:10:00,
2013-03-03 00:15:00,4.3,-0.9,30.11,NNW,337,0.0,0.0,79,0.00,,,0.00,WUHU21623XXSP,2013-03-03 06:15:00,
2013-03-03 00:20:00,3.9,-1.2,30.11,NNW,337,0.0,0.0,79,0.00,,,0.00,WUHU21623XXSP,2013-03-03 06:20:00,
2013-03-03 00:25:00,3.7,-1.4,30.10,West,270,0.0,0.0,79,0.00,,,0.00,WUHU21623XXSP,2013-03-03 06:25:00,
2013-03-03 00:30:00,3.9,-1.2,30.10,WNW,292,0.0,0.0,79,0.00,,,0.00,WUHU21623XXSP,2013-03-03 06:30:00,
2013-03-03 00:35:00,3.9,-1.2,30.10,NW,315,0.0,0.0,79,0.00,,,0.00,WUHU21623XXSP,2013-03-03 06:35:00,
2013-03-03 00:40:00,3.9,-1.2,30.10,NW,315,0.0,0.0,79,0.00,,,0.00,WUHU21623XXSP,2013-03-03 06:40:00,
2013-03-03 00:45:00,3.7,-1.4,30.11,NW,315,0.0,0.0,79,0.00,,,0.00,WUHU21623XXSP,2013-03-03 06:45:00,
2013-03-03 00:50:00,3.4,-1.8,30.10,NW,315,0.0,0.0,79,0.00,,,0.00,WUHU21623XXSP,2013-03-03 06:50:00,
2013-03-03 00:55:00,3.0,-2.1,30.10,NW,315,0.0,0.0,79,0.00,,,0.00,WUHU21623XXSP,2013-03-03 06:55:00,
2013-03-03 01:00:00,2.8,-2.3,30.10,NW,315,0.0,0.0,79,0.00,,,0.00,WUHU21623XXSP,2013-03-03 07:00:00,
2013-03-03 01:05:00,2.5,-2.6,30.10,NW,315,0.0,0.0,79,0.00,,,0.00,WUHU21623XXSP,2013-03-03 07:05:00,
2013-03-03 01:10:00,2.3,-2.6,30.11,NW,315,0.0,0.0,80,0.00,,,0.00,WUHU21623XXSP,2013-03-03 07:10:00,
2013-03-03 01:15:00,2.3,-2.6,30.10,NW,315,0.0,0.0,80,0.00,,,0.00,WUHU21623XXSP,2013-03-03 07:15:00,
2013-03-03 01:20:00,2.3,-2.6,30.10,NW,315,0.0,0.0,80,0.00,,,0.00,WUHU21623XXSP,2013-03-03 07:20:00,
2013-03-03 01:25:00,2.1,-2.6,30.10,NW,315,0.0,0.0,80,0.00,,,0.00,WUHU21623XXSP,2013-03-03 07:25:00,
2013-03-03 01:30:00,1.6,-3.3,30.10,ESE,112,0.0,0.0,80,0.00,,,0.00,WUHU21623XXSP,2013-03-03 07:30:00,
2013-03-03 01:35:00,0.9,-3.9,30.09,ESE,112,0.0,0.0,79,0.00,,,0.00,WUHU21623XXSP,2013-03-03 07:35:00,
2013-03-03 01:40:00,-0.2,-5.2,30.10,SSE,157,0.0,0.0,79,0.00,,,0.00,WUHU21623XXSP,2013-03-03 07:40:00,
2013-03-03 01:45:00,-0.6,-5.5,30.10,SSE,157,0.0,0.0,79,0.00,,,0.00,WUHU21623XXSP,2013-03-03 07:45:00,
2013-03-03 01:50:00,-0.8,-5.4,30.09,SSE,157,0.0,0.0,80,0.00,,,0.00,WUHU21623XXSP,2013-03-03 07:50:00,
2013-03-03 01:55:00,-0.8,-5.4,30.09,SSE,157,0.0,0.0,80,0.00,,,0.00,WUHU21623XXSP,2013-03-03 07:55:00,
2013-03-03 02:00:00,-0.6,-5.3,30.09,West,270,0.0,0.0,80,0.00,,,0.00,WUHU21623XXSP,2013-03-03 08:00:00,
2013-03-03 02:05:00,-0.6,-5.3,30.09,NNW,337,0.0,0.0,80,0.00,,,0.00,WUHU21623XXSP,2013-03-03 08:05:00,
2013-03-03 02:10:00,-0.8,-5.4,30.09,NNW,337,0.0,0.0,80,0.00,,,0.00,WUHU21623XXSP,2013-03-03 08:10:00,
2013-03-03 02:15:00,-1.1,-5.8,30.09,NNW,337,0.0,0.0,80,0.00,,,0.00,WUHU21623XXSP,2013-03-03 08:15:00,
2013-03-03 02:20:00,-1.5,-6.2,30.09,NNW,337,0.0,0.0,80,0.00,,,0.00,WUHU21623XXSP,2013-03-03 08:20:00,
2013-03-03 02:25:00,-1.8,-6.5,30.09,NNW,337,0.0,0.0,80,0.00,,,0.00,WUHU21623XXSP,2013-03-03 08:25:00,
2013-03-03 02:30:00,-1.8,-6.5,30.09,NNW,337,0.0,0.0,80,0.00,,,0.00,WUHU21623XXSP,2013-03-03 08:30:00,
2013-03-03 02:35:00,-2.4,-7.1,30.08,NNW,337,0.0,0.0,80,0.00,,,0.00,WUHU21623XXSP,2013-03-03 08:35:00,
2013-03-03 02:40:00,-2.6,-7.2,30.08,NNW,337,0.0,0.0,80,0.00,,,0.00,WUHU21623XXSP,2013-03-03 08:40:00,
2013-03-03 02:45:00,-2.7,-7.2,30.08,NNW,337,0.0,0.0,81,0.00,,,0.00,WUHU21623XXSP,2013-03-03 08:45:00,
2013-03-03 02:50:00,-2.9,-7.4,30.08,NNW,337,0.0,0.0,81,0.00,,,0.00,WUHU21623XXSP,2013-03-03 08:50:00,
2013-03-03 02:55:00,-3.1,-7.5,30.08,NNW,337,0.0,0.0,81,0.00,,,0.00,WUHU21623XXSP,2013-03-03 08:55:00,
2013-03-03 03:00:00,-2.9,-7.5,30.08,NNW,337,0.0,0.0,81,0.00,,,0.00,WUHU21623XXSP,2013-03-03 09:00:00,
2013-03-03 03:05:00,-2.6,-7.0,30.07,NNW,337,0.0,0.0,81,0.00,,,0.00,WUHU21623XXSP,2013-03-03 09:05:00,
2013-03-03 03:10:00,-2.7,-7.2,30.07,NNW,337,0.0,0.0,81,0.00,,,0.00,WUHU21623XXSP,2013-03-03 09:10:00,
2013-03-03 03:15:00,-3.1,-7.5,30.08,NNW,337,0.0,0.0,81,0.00,,,0.00,WUHU21623XXSP,2013-03-03 09:15:00,
2013-03-03 03:20:00,-3.3,-7.7,30.07,NNW,337,0.0,0.0,81,0.00,,,0.00,WUHU21623XXSP,2013-03-03 09:20:00,
2013-03-03 03:25:00,-3.5,-7.9,30.07,NNW,337,0.0,0.0,81,0.00,,,0.00,WUHU21623XXSP,2013-03-03 09:25:00,
2013-03-03 03:30:00,-3.8,-8.3,30.07,NNW,337,0.0,0.0,81,0.00,,,0.00,WUHU21623XXSP,2013-03-03 09:30:00,
2013-03-03 03:35:00,-4.2,-8.3,30.08,NNW,337,0.0,0.0,81,0.00,,,0.00,WUHU21623XXSP,2013-03-03 09:35:00,
2013-03-03 03:40:00,-4.4,-8.8,30.07,NNW,337,0.0,0.0,81,0.00,,,0.00,WUHU21623XXSP,2013-03-03 09:40:00,
2013-03-03 03:45:00,-4.7,-9.2,30.07,NNW,337,0.0,0.0,81,0.00,,,0.00,WUHU21623XXSP,2013-03-03 09:45:00,
2013-03-03 03:50:00,-4.7,-9.2,30.07,NNW,337,0.0,0.0,81,0.00,,,0.00,WUHU21623XXSP,2013-03-03 09:50:00,
2013-03-03 03:55:00,-4.4,-8.8,30.08,NNW,337,0.0,0.0,81,0.00,,,0.00,WUHU21623XXSP,2013-03-03 09:55:00,
2013-03-03 04:00:00,-4.4,-8.8,30.08,NNW,337,0.0,0.0,81,0.00,,,0.00,WUHU21623XXSP,2013-03-03 10:00:00,
2013-03-03 04:05:00,-4.7,-9.2,30.07,NNW,337,0.0,0.0,81,0.00,,,0.00,WUHU21623XXSP,2013-03-03 10:05:00,
2013-03-03 04:10:00,-4.9,-9.3,30.08,NNW,337,0.0,0.0,81,0.00,,,0.00,WUHU21623XXSP,2013-03-03 10:10:00,
2013-03-03 04:15:00,-5.1,-9.5,30.08,NNW,337,0.0,0.0,81,0.00,,,0.00,WUHU21623XXSP,2013-03-03 10:15:00,
2013-03-03 04:20:00,-5.3,-9.7,30.08,NNW,337,0.0,0.0,81,0.00,,,0.00,WUHU21623XXSP,2013-03-03 10:20:00,
2013-03-03 04:25:00,-5.8,-10.2,30.08,North,0,0.0,0.0,81,0.00,,,0.00,WUHU21623XXSP,2013-03-03 10:25:00,
2013-03-03 04:30:00,-6.0,-10.4,30.08,West,270,0.0,0.0,81,0.00,,,0.00,WUHU21623XXSP,2013-03-03 10:30:00,
2013-03-03 04:35:00,-5.4,-10.2,30.08,West,270,0.0,0.0,81,0.00,,,0.00,WUHU21623XXSP,2013-03-03 10:35:00,
2013-03-03 04:40:00,-4.2,-8.6,30.08,NNW,337,0.0,0.0,81,0.00,,,0.00,WUHU21623XXSP,2013-03-03 10:40:00,
2013-03-03 04:45:00,-4.4,-8.8,30.09,NNW,337,0.0,0.0,81,0.00,,,0.00,WUHU21623XXSP,2013-03-03 10:45:00,
2013-03-03 04:50:00,-4.7,-9.2,30.08,NW,315,0.0,0.0,81,0.00,,,0.00,WUHU21623XXSP,2013-03-03 10:50:00,
2013-03-03 04:55:00,-4.4,-8.8,30.09,NW,315,0.0,0.0,81,0.00,,,0.00,WUHU21623XXSP,2013-03-03 10:55:00,
2013-03-03 05:00:00,-4.7,-9.2,30.09,NW,315,0.0,0.0,81,0.00,,,0.00,WUHU21623XXSP,2013-03-03 11:00:00,
2013-03-03 05:05:00,-5.3,-9.7,30.09,NW,315,0.0,0.0,81,0.00,,,0.00,WUHU21623XXSP,2013-03-03 11:05:00,
2013-03-03 05:10:00,-5.4,-9.9,30.09,NW,315,0.0,0.0,81,0.00,,,0.00,WUHU21623XXSP,2013-03-03 11:10:00,
2013-03-03 05:15:00,-5.8,-10.2,30.09,NW,315,0.0,0.0,81,0.00,,,0.00,WUHU21623XXSP,2013-03-03 11:15:00,
2013-03-03 05:20:00,-6.0,-10.4,30.09,NW,315,0.0,0.0,81,0.00,,,0.00,WUHU21623XXSP,2013-03-03 11:20:00,
2013-03-03 05:25:00,-6.5,-10.6,30.09,NW,315,0.0,0.0,81,0.00,,,0.00,WUHU21623XXSP,2013-03-03 11:25:00,
2013-03-03 05:30:00,-6.7,-11.1,30.09,NW,315,0.0,0.0,81,0.00,,,0.00,WUHU21623XXSP,2013-03-03 11:30:00,
2013-03-03 05:35:00,-6.9,-11.3,30.09,NW,315,0.0,0.0,81,0.00,,,0.00,WUHU21623XXSP,2013-03-03 11:35:00,
2013-03-03 05:40:00,-6.9,-11.3,30.09,NNE,22,0.0,0.0,81,0.00,,,0.00,WUHU21623XXSP,2013-03-03 11:40:00,
2013-03-03 05:45:00,-6.9,-11.3,30.09,North,0,0.0,0.0,81,0.00,,,0.00,WUHU21623XXSP,2013-03-03 11:45:00,
2013-03-03 05:50:00,-5.6,-9.8,30.09,WNW,292,0.0,0.0,82,0.00,,,0.00,WUHU21623XXSP,2013-03-03 11:50:00,
2013-03-03 05:55:00,-3.8,-8.0,30.09,West,270,0.0,0.0,82,0.00,,,0.00,WUHU21623XXSP,2013-03-03 11:55:00,
2013-03-03 06:00:00,-3.8,-8.0,30.09,West,270,0.0,0.0,82,0.00,,,0.00,WUHU21623XXSP,2013-03-03 12:00:00,
2013-03-03 06:05:00,-5.3,-9.9,30.09,NE,45,0.0,0.0,80,0.00,,,0.00,WUHU21623XXSP,2013-03-03 12:05:00,
2013-03-03 06:10:00,-6.2,-10.8,30.09,North,0,0.0,0.0,80,0.00,,,0.00,WUHU21623XXSP,2013-03-03 12:10:00,
2013-03-03 06:15:00,-6.0,-10.4,30.09,NNW,337,0.0,0.0,81,0.00,,,0.00,WUHU21623XXSP,2013-03-03 12:15:00,
2013-03-03 06:20:00,-5.8,-10.2,30.09,NNW,337,0.0,0.0,81,0.00,,,0.00,WUHU21623XXSP,2013-03-03 12:20:00,
2013-03-03 06:25:00,-6.3,-11.0,30.09,NNW,337,0.0,0.0,80,0.00,,,0.00,WUHU21623XXSP,2013-03-03 12:25:00,
2013-03-03 06:30:00,-6.9,-11.6,30.09,NNW,337,0.0,0.0,80,0.00,,,0.00,WUHU21623XXSP,2013-03-03 12:30:00,
2013-03-03 06:35:00,-7.2,-11.9,30.09,NNW,337,0.0,0.0,80,0.00,,,0.00,WUHU21623XXSP,2013-03-03 12:35:00,
2013-03-03 06:40:00,-7.1,-11.5,30.09,NNW,337,0.0,0.0,81,0.00,,,0.00,WUHU21623XXSP,2013-03-03 12:40:00,
2013-03-03 06:45:00,-6.5,-11.3,30.09,NNW,337,0.0,0.0,81,0.00,,,0.00,WUHU21623XXSP,2013-03-03 12:45:00,
2013-03-03 06:50:00,-6.0,-10.4,30.09,NNW,337,0.0,0.0,81,0.00,,,0.00,WUHU21623XXSP,2013-03-03 12:50:00,
2013-03-03 06:55:00,-5.1,-9.5,30.09,NNW,337,0.0,0.0,81,0.00,,,0.00,WUHU21623XXSP,2013-03-03 12:55:00,
2013-03-03 07:00:00,-4.4,-9.2,30.09,NNW,337,0.0,0.0,82,0.00,,,0.00,WUHU21623XXSP,2013-03-03 13:00:00,
2013-03-03 07:05:00,-3.5,-8.0,30.09,NNW,337,0.0,0.0,82,0.00,,,0.00,WUHU21623XXSP,2013-03-03 13:05:00,
2013-03-03 07:10:00,-2.6,-7.1,30.09,NNW,337,0.0,0.0,82,0.00,,,0.00,WUHU21623XXSP,2013-03-03 13:10:00,
2013-03-03 07:15:00,-2.0,-6.2,30.09,NNW,337,0.0,0.0,82,0.00,,,0.00,WUHU21623XXSP,2013-03-03 13:15:00,
2013-03-03 07:20:00,-1.7,-6.1,30.09,NNW,337,0.0,0.0,81,0.00,,,0.00,WUHU21623XXSP,2013-03-03 13:20:00,
2013-03-03 07:25:00,-1.8,-6.5,30.09,NNW,337,0.0,0.0,80,0.00,,,0.00,WUHU21623XXSP,2013-03-03 13:25:00,
2013-03-03 07:30:00,-1.1,-5.8,30.09,NNW,337,0.0,0.0,80,0.00,,,0.00,WUHU21623XXSP,2013-03-03 13:30:00,
2013-03-03 07:35:00,0.1,-5.0,30.09,NNW,337,0.0,0.0,81,0.00,,,0.00,WUHU21623XXSP,2013-03-03 13:35:00,
2013-03-03 07:40:00,1.9,-2.7,30.09,NNW,337,0.0,0.0,81,0.00,,,0.00,WUHU21623XXSP,2013-03-03 13:40:00,
2013-03-03 07:45:00,2.5,-2.1,30.09,West,270,0.0,0.0,81,0.00,,,0.00,WUHU21623XXSP,2013-03-03 13:45:00,
2013-03-03 07:50:00,3.0,-2.1,30.09,West,270,0.0,0.0,80,0.00,,,0.00,WUHU21623XXSP,2013-03-03 13:50:00,
2013-03-03 07:56:00,3.4,-2.0,30.08,NNE,22,0.0,0.0,78,0.00,,,0.00,WUHU21623XXSP,2013-03-03 13:56:00,
2013-03-03 08:00:00,4.6,-1.2,30.08,NNE,22,0.0,0.0,79,0.00,,,0.00,WUHU21623XXSP,2013-03-03 14:00:00,
2013-03-03 08:05:00,5.9,0.5,30.09,NNE,22,0.0,0.0,78,0.00,,,0.00,WUHU21623XXSP,2013-03-03 14:05:00,
2013-03-03 08:10:00,8.1,2.6,30.08,NNE,22,0.0,0.0,78,0.00,,,0.00,WUHU21623XXSP,2013-03-03 14:10:00,
2013-03-03 08:15:00,10.2,4.6,30.09,NNE,22,0.0,0.0,78,0.00,,,0.00,WUHU21623XXSP,2013-03-03 14:15:00,
2013-03-03 08:20:00,12.4,6.2,30.09,NNE,22,0.0,0.0,76,0.00,,,0.00,WUHU21623XXSP,2013-03-03 14:20:00,
2013-03-03 08:25:00,14.7,7.9,30.08,NNE,22,0.0,0.0,74,0.00,,,0.00,WUHU21623XXSP,2013-03-03 14:25:00,
2013-03-03 08:31:00,15.8,8.3,30.09,NNE,22,0.0,0.0,72,0.00,,,0.00,WUHU21623XXSP,2013-03-03 14:31:00,
2013-03-03 08:36:00,16.0,7.9,30.08,NNE,22,0.0,0.0,70,0.00,,,0.00,WUHU21623XXSP,2013-03-03 14:36:00,
2013-03-03 08:40:00,16.9,8.4,30.09,NNE,22,0.0,0.0,69,0.00,,,0.00,WUHU21623XXSP,2013-03-03 14:40:00,
2013-03-03 08:46:00,18.1,9.3,30.08,West,270,0.0,0.0,68,0.00,,,0.00,WUHU21623XXSP,2013-03-03 14:46:00,
2013-03-03 08:51:00,19.2,9.9,30.08,WSW,247,0.0,0.0,67,0.00,,,0.00,WUHU21623XXSP,2013-03-03 14:51:00,
2013-03-03 08:56:00,16.5,6.7,30.08,WSW,247,0.0,0.0,65,0.00,,,0.00,WUHU21623XXSP,2013-03-03 14:56:00,
2013-03-03 09:01:00,15.3,5.8,30.09,WSW,247,0.0,0.0,66,0.00,,,0.00,WUHU21623XXSP,2013-03-03 15:01:00,
2013-03-03 09:06:00,16.0,6.9,30.09,SW,225,0.0,0.0,67,0.00,,,0.00,WUHU21623XXSP,2013-03-03 15:06:00,
2013-03-03 09:11:00,17.4,8.3,30.09,WSW,247,0.0,0.0,67,0.00,,,0.00,WUHU21623XXSP,2013-03-03 15:11:00,
2013-03-03 09:16:00,18.9,9.6,30.09,SW,225,0.0,0.0,67,0.00,,,0.00,WUHU21623XXSP,2013-03-03 15:16:00,
2013-03-03 09:21:00,19.2,9.6,30.09,SW,225,1.3,2.0,66,0.00,,,0.00,WUHU21623XXSP,2013-03-03 15:21:00,
2013-03-03 09:26:00,20.3,9.8,30.09,SW,225,0.0,2.0,66,0.00,,,0.00,WUHU21623XXSP,2013-03-03 15:26:00,
2013-03-03 09:31:00,20.8,10.8,30.09,WSW,247,0.0,2.0,65,0.00,,,0.00,WUHU21623XXSP,2013-03-03 15:31:00,
2013-03-03 09:36:00,21.0,10.7,30.09,WSW,247,0.0,2.0,64,0.00,,,0.00,WUHU21623XXSP,2013-03-03 15:36:00,
2013-03-03 09:41:00,21.9,11.5,30.09,WSW,247,0.0,0.0,64,0.00,,,0.00,WUHU21623XXSP,2013-03-03 15:41:00,
2013-03-03 09:46:00,22.5,11.7,30.09,WSW,247,0.0,0.0,63,0.00,,,0.00,WUHU21623XXSP,2013-03-03 15:46:00,
2013-03-03 09:51:00,22.8,12.0,30.08,WSW,247,0.7,0.7,63,0.00,,,0.00,WUHU21623XXSP,2013-03-03 15:51:00,
2013-03-03 09:56:00,24.1,12.9,30.08,SW,225,0.0,0.7,62,0.00,,,0.00,WUHU21623XXSP,2013-03-03 15:56:00,
2013-03-03 10:01:00,24.4,12.9,30.08,West,270,0.0,0.0,61,0.00,,,0.00,WUHU21623XXSP,2013-03-03 16:01:00,
2013-03-03 10:05:00,25.0,13.1,30.08,SW,225,0.0,0.0,60,0.00,,,0.00,WUHU21623XXSP,2013-03-03 16:05:00,
2013-03-03 10:11:00,25.0,13.1,30.08,SW,225,0.0,0.0,60,0.00,,,0.00,WUHU21623XXSP,2013-03-03 16:11:00,
2013-03-03 10:16:00,25.3,13.4,30.08,West,270,0.0,0.0,60,0.00,,,0.00,WUHU21623XXSP,2013-03-03 16:16:00,
2013-03-03 10:20:00,26.2,13.8,30.08,WSW,247,2.2,2.2,59,0.00,,,0.00,WUHU21623XXSP,2013-03-03 16:20:00,
2013-03-03 10:26:00,25.3,13.2,30.08,West,270,0.0,2.2,59,0.00,,,0.00,WUHU21623XXSP,2013-03-03 16:26:00,
2013-03-03 10:30:00,25.5,12.7,30.08,SSW,202,2.0,2.2,58,0.00,,,0.00,WUHU21623XXSP,2013-03-03 16:30:00,
2013-03-03 10:35:00,26.1,13.5,30.08,SW,225,1.3,2.0,58,0.00,,,0.00,WUHU21623XXSP,2013-03-03 16:35:00,
2013-03-03 10:40:00,27.0,13.4,30.08,West,270,0.0,1.3,58,0.00,,,0.00,WUHU21623XXSP,2013-03-03 16:40:00,
2013-03-03 10:45:00,27.1,13.8,30.08,SW,225,0.0,0.0,57,0.00,,,0.00,WUHU21623XXSP,2013-03-03 16:45:00,
2013-03-03 10:50:00,27.3,14.0,30.08,WNW,292,0.0,0.9,57,0.00,,,0.00,WUHU21623XXSP,2013-03-03 16:50:00,
2013-03-03 10:56:00,28.0,15.2,30.08,NNE,22,0.0,0.9,58,0.00,,,0.00,WUHU21623XXSP,2013-03-03 16:56:00,
2013-03-03 11:01:00,27.7,14.4,30.08,NNE,22,2.0,2.0,57,0.00,,,0.00,WUHU21623XXSP,2013-03-03 17:01:00,
2013-03-03 11:06:00,28.6,14.4,30.08,South,180,0.0,2.0,55,0.00,,,0.00,WUHU21623XXSP,2013-03-03 17:06:00,
2013-03-03 11:11:00,30.2,15.9,30.08,NNE,22,0.0,2.0,55,0.00,,,0.00,WUHU21623XXSP,2013-03-03 17:11:00,
2013-03-03 11:16:00,30.0,15.6,30.07,North,0,0.0,0.0,54,0.00,,,0.00,WUHU21623XXSP,2013-03-03 17:16:00,
2013-03-03 11:21:00,30.0,15.3,30.07,West,270,0.0,0.0,53,0.00,,,0.00,WUHU21623XXSP,2013-03-03 17:21:00,
2013-03-03 11:26:00,29.3,14.3,30.07,West,270,0.0,0.0,53,0.00,,,0.00,WUHU21623XXSP,2013-03-03 17:26:00,
2013-03-03 11:31:00,29.1,14.5,30.08,West,270,0.0,0.0,54,0.00,,,0.00,WUHU21623XXSP,2013-03-03 17:31:00,
2013-03-03 11:36:00,30.7,16.0,30.07,West,270,0.0,0.0,54,0.00,,,0.00,WUHU21623XXSP,2013-03-03 17:36:00,
2013-03-03 11:41:00,31.1,15.5,30.07,WSW,247,0.0,0.0,52,0.00,,,0.00,WUHU21623XXSP,2013-03-03 17:41:00,
2013-03-03 11:46:00,31.3,15.6,30.07,NW,315,0.0,0.0,52,0.00,,,0.00,WUHU21623XXSP,2013-03-03 17:46:00,
2013-03-03 11:51:00,32.4,16.6,30.07,WSW,247,0.0,0.0,52,0.00,,,0.00,WUHU21623XXSP,2013-03-03 17:51:00,
2013-03-03 11:56:00,33.6,17.3,30.06,WNW,292,0.0,0.0,51,0.00,,,0.00,WUHU21623XXSP,2013-03-03 17:56:00,
2013-03-03 12:01:00,32.7,15.6,30.06,East,90,0.0,0.7,49,0.00,,,0.00,WUHU21623XXSP,2013-03-03 18:01:00,
2013-03-03 12:06:00,34.3,17.1,30.06,ESE,112,0.0,0.7,49,0.00,,,0.00,WUHU21623XXSP,2013-03-03 18:06:00,
2013-03-03 12:11:00,35.8,18.0,30.06,ESE,112,0.0,1.6,48,0.00,,,0.00,WUHU21623XXSP,2013-03-03 18:11:00,
2013-03-03 12:16:00,36.7,17.7,30.06,ESE,112,0.0,1.6,46,0.00,,,0.00,WUHU21623XXSP,2013-03-03 18:16:00,
2013-03-03 12:21:00,36.3,17.4,30.06,South,180,0.0,0.0,46,0.00,,,0.00,WUHU21623XXSP,2013-03-03 18:21:00,
2013-03-03 12:26:00,37.9,18.4,30.05,South,180,0.0,0.0,45,0.00,,,0.00,WUHU21623XXSP,2013-03-03 18:26:00,
2013-03-03 12:31:00,39.4,19.1,30.05,SW,225,0.0,0.0,44,0.00,,,0.00,WUHU21623XXSP,2013-03-03 18:31:00,
2013-03-03 12:36:00,36.3,17.4,30.05,SW,225,0.0,0.0,46,0.00,,,0.00,WUHU21623XXSP,2013-03-03 18:36:00,
2013-03-03 12:41:00,35.1,16.3,30.05,NE,45,0.0,0.0,46,0.00,,,0.00,WUHU21623XXSP,2013-03-03 18:41:00,
2013-03-03 12:46:00,36.1,17.8,30.04,NE,45,0.0,0.0,47,0.00,,,0.00,WUHU21623XXSP,2013-03-03 18:46:00,
2013-03-03 12:51:00,35.6,16.3,30.04,SSW,202,0.0,0.0,45,0.00,,,0.00,WUHU21623XXSP,2013-03-03 18:51:00,
2013-03-03 12:56:00,34.9,15.6,30.04,SW,225,0.0,0.0,45,0.00,,,0.00,WUHU21623XXSP,2013-03-03 18:56:00,
2013-03-03 13:01:00,34.9,15.7,30.04,SSE,157,0.0,0.0,46,0.00,,,0.00,WUHU21623XXSP,2013-03-03 19:01:00,
2013-03-03 13:06:00,34.2,15.4,30.04,North,0,0.0,1.8,46,0.00,,,0.00,WUHU21623XXSP,2013-03-03 19:06:00,
2013-03-03 13:11:00,34.5,15.7,30.04,SSE,157,0.0,1.8,46,0.00,,,0.00,WUHU21623XXSP,2013-03-03 19:11:00,
2013-03-03 13:16:00,34.9,15.6,30.03,SSW,202,0.0,0.0,45,0.00,,,0.00,WUHU21623XXSP,2013-03-03 19:16:00,
2013-03-03 13:21:00,35.2,16.4,30.03,WNW,292,0.0,0.0,46,0.00,,,0.00,WUHU21623XXSP,2013-03-03 19:21:00,
2013-03-03 13:26:00,36.3,16.9,30.03,North,0,0.0,0.0,45,0.00,,,0.00,WUHU21623XXSP,2013-03-03 19:26:00,
2013-03-03 13:31:00,37.2,17.2,30.03,North,0,0.0,0.0,44,0.00,,,0.00,WUHU21623XXSP,2013-03-03 19:31:00,
2013-03-03 13:36:00,34.2,14.4,30.03,North,0,0.0,1.6,44,0.00,,,0.00,WUHU21623XXSP,2013-03-03 19:36:00,
2013-03-03 13:41:00,33.3,13.6,30.03,WNW,292,0.0,1.6,44,0.00,,,0.00,WUHU21623XXSP,2013-03-03 19:41:00,
2013-03-03 13:46:00,33.1,12.9,30.03,NNE,22,2.9,2.9,43,0.00,,,0.00,WUHU21623XXSP,2013-03-03 19:46:00,
2013-03-03 13:51:00,32.5,12.9,30.03,NNE,22,4.7,4.7,44,0.00,,,0.00,WUHU21623XXSP,2013-03-03 19:51:00,
2013-03-03 13:56:00,31.8,11.2,30.03,NNE,22,0.7,4.7,42,0.00,,,0.00,WUHU21623XXSP,2013-03-03 19:56:00,
2013-03-03 14:01:00,31.8,11.8,30.03,North,0,1.6,1.6,43,0.00,,,0.00,WUHU21623XXSP,2013-03-03 20:01:00,
2013-03-03 14:06:00,32.5,12.4,30.02,North,0,0.0,1.6,43,0.00,,,0.00,WUHU21623XXSP,2013-03-03 20:06:00,
2013-03-03 14:11:00,32.7,12.1,30.03,NNE,22,0.0,2.0,42,0.00,,,0.00,WUHU21623XXSP,2013-03-03 20:11:00,
2013-03-03 14:16:00,33.4,13.2,30.02,NNE,22,0.0,2.0,43,0.00,,,0.00,WUHU21623XXSP,2013-03-03 20:16:00,
2013-03-03 14:21:00,33.4,12.7,30.02,NNE,22,0.0,0.0,42,0.00,,,0.00,WUHU21623XXSP,2013-03-03 20:21:00,
2013-03-03 14:26:00,33.4,13.2,30.02,NNE,22,0.0,2.0,43,0.00,,,0.00,WUHU21623XXSP,2013-03-03 20:26:00,
2013-03-03 14:31:00,34.2,13.9,30.02,SSW,202,0.0,2.0,43,0.00,,,0.00,WUHU21623XXSP,2013-03-03 20:31:00,
2013-03-03 14:36:00,33.6,12.9,30.02,West,270,0.0,2.2,42,0.00,,,0.00,WUHU21623XXSP,2013-03-03 20:36:00,
2013-03-03 14:41:00,33.6,12.9,30.03,SSE,157,0.0,2.2,42,0.00,,,0.00,WUHU21623XXSP,2013-03-03 20:41:00,
2013-03-03 14:46:00,34.9,14.0,30.03,South,180,0.0,0.0,42,0.00,,,0.00,WUHU21623XXSP,2013-03-03 20:46:00,
2013-03-03 14:51:00,36.0,14.3,30.03,NE,45,0.0,0.0,41,0.00,,,0.00,WUHU21623XXSP,2013-03-03 20:51:00,
2013-03-03 14:56:00,34.5,13.2,30.02,East,90,0.0,0.0,41,0.00,,,0.00,WUHU21623XXSP,2013-03-03 20:56:00,
2013-03-03 15:01:00,34.7,13.9,30.03,WNW,292,0.0,0.0,42,0.00,,,0.00,WUHU21623XXSP,2013-03-03 21:01:00,
2013-03-03 15:06:00,34.7,14.4,30.03,ESE,112,0.0,0.0,43,0.00,,,0.00,WUHU21623XXSP,2013-03-03 21:06:00,
2013-03-03 15:11:00,36.1,14.6,30.03,SE,135,0.0,0.0,41,0.00,,,0.00,WUHU21623XXSP,2013-03-03 21:11:00,
2013-03-03 15:16:00,36.1,15.1,30.03,ESE,112,0.0,0.0,39,0.00,,,0.00,WUHU21623XXSP,2013-03-03 21:16:00,
2013-03-03 15:21:00,35.4,13.5,30.03,ENE,67,0.0,0.0,40,0.00,,,0.00,WUHU21623XXSP,2013-03-03 21:21:00,
2013-03-03 15:26:00,34.3,12.5,30.02,ENE,67,0.0,0.0,39,0.00,,,0.00,WUHU21623XXSP,2013-03-03 21:26:00,
2013-03-03 15:31:00,33.6,11.9,30.02,SSE,157,0.0,0.0,40,0.00,,,0.00,WUHU21623XXSP,2013-03-03 21:31:00,
2013-03-03 15:36:00,34.0,12.7,30.02,South,180,0.0,1.6,41,0.00,,,0.00,WUHU21623XXSP,2013-03-03 21:36:00,
2013-03-03 15:41:00,34.2,12.3,30.02,SSE,157,0.0,1.6,40,0.00,,,0.00,WUHU21623XXSP,2013-03-03 21:41:00,
2013-03-03 15:46:00,34.0,12.7,30.02,SSE,157,0.0,0.0,40,0.00,,,0.00,WUHU21623XXSP,2013-03-03 21:46:00,
2013-03-03 15:51:00,34.3,12.8,30.03,South,180,0.0,0.0,41,0.00,,,0.00,WUHU21623XXSP,2013-03-03 21:51:00,
2013-03-03 15:56:00,33.6,12.4,30.03,ESE,112,2.5,3.6,41,0.00,,,0.00,WUHU21623XXSP,2013-03-03 21:56:00,
2013-03-03 16:01:00,32.7,11.6,30.02,ESE,112,2.0,3.6,41,0.00,,,0.00,WUHU21623XXSP,2013-03-03 22:01:00,
2013-03-03 16:06:00,32.5,11.9,30.02,ESE,112,2.0,3.1,42,0.00,,,0.00,WUHU21623XXSP,2013-03-03 22:06:00,
2013-03-03 16:11:00,32.2,11.6,30.02,ESE,112,0.0,2.0,42,0.00,,,0.00,WUHU21623XXSP,2013-03-03 22:11:00,
2013-03-03 16:16:00,32.7,12.1,30.02,SSE,157,0.0,0.0,42,0.00,,,0.00,WUHU21623XXSP,2013-03-03 22:16:00,
2013-03-03 16:21:00,32.5,12.1,30.02,SE,135,2.2,2.2,42,0.00,,,0.00,WUHU21623XXSP,2013-03-03 22:21:00,
2013-03-03 16:26:00,31.8,12.1,30.03,SE,135,3.8,3.8,43,0.00,,,0.00,WUHU21623XXSP,2013-03-03 22:26:00,
2013-03-03 16:31:00,31.8,12.3,30.02,South,180,0.0,3.8,44,0.00,,,0.00,WUHU21623XXSP,2013-03-03 22:31:00,
2013-03-03 16:36:00,31.6,12.1,30.03,SSE,157,2.5,3.8,45,0.00,,,0.00,WUHU21623XXSP,2013-03-03 22:36:00,
2013-03-03 16:41:00,30.7,11.8,30.03,SE,135,0.0,3.8,45,0.00,,,0.00,WUHU21623XXSP,2013-03-03 22:41:00,
2013-03-03 16:46:00,30.9,12.3,30.03,SE,135,0.0,0.0,46,0.00,,,0.00,WUHU21623XXSP,2013-03-03 22:46:00,
2013-03-03 16:51:00,30.7,12.5,30.03,ESE,112,0.0,0.0,46,0.00,,,0.00,WUHU21623XXSP,2013-03-03 22:51:00,
2013-03-03 16:56:00,30.0,11.6,30.03,East,90,2.9,2.9,46,0.00,,,0.00,WUHU21623XXSP,2013-03-03 22:56:00,
2013-03-03 17:01:00,29.3,11.5,30.03,East,90,0.0,2.9,47,0.00,,,0.00,WUHU21623XXSP,2013-03-03 23:01:00,
2013-03-03 17:06:00,28.9,11.7,30.03,SE,135,0.7,0.7,48,0.00,,,0.00,WUHU21623XXSP,2013-03-03 23:06:00,
2013-03-03 17:11:00,28.2,11.0,30.03,SE,135,0.0,0.7,48,0.00,,,0.00,WUHU21623XXSP,2013-03-03 23:11:00,
2013-03-03 17:16:00,26.8,10.1,30.03,SE,135,0.0,0.0,49,0.00,,,0.00,WUHU21623XXSP,2013-03-03 23:16:00,
2013-03-03 17:21:00,26.2,10.1,30.03,SSE,157,0.0,0.0,50,0.00,,,0.00,WUHU21623XXSP,2013-03-03 23:21:00,
2013-03-03 17:26:00,25.7,10.0,30.03,SSE,157,0.0,0.0,51,0.00,,,0.00,WUHU21623XXSP,2013-03-03 23:26:00,
2013-03-03 17:31:00,25.3,9.7,30.03,SE,135,0.0,0.0,51,0.00,,,0.00,WUHU21623XXSP,2013-03-03 23:31:00,
2013-03-03 17:36:00,25.0,9.4,30.03,SE,135,0.0,0.0,51,0.00,,,0.00,WUHU21623XXSP,2013-03-03 23:36:00,
2013-03-03 17:41:00,24.4,8.9,30.03,SE,135,0.0,0.0,51,0.00,,,0.00,WUHU21623XXSP,2013-03-03 23:41:00,
2013-03-03 17:46:00,24.1,9.3,30.03,ESE,112,2.0,3.1,53,0.00,,,0.00,WUHU21623XXSP,2013-03-03 23:46:00,
2013-03-03 17:51:00,24.1,9.3,30.03,ESE,112,2.0,3.1,53,0.00,,,0.00,WUHU21623XXSP,2013-03-03 23:51:00,
2013-03-03 17:56:00,23.7,9.4,30.03,ESE,112,1.6,5.1,54,0.00,,,0.00,WUHU21623XXSP,2013-03-03 23:56:00,
2013-03-03 18:01:00,23.5,9.2,30.03,SSE,157,0.0,5.1,54,0.00,,,0.00,WUHU21623XXSP,2013-03-04 00:01:00,
2013-03-03 18:06:00,23.4,9.5,30.03,ESE,112,3.6,3.6,55,0.00,,,0.00,WUHU21623XXSP,2013-03-04 00:06:00,
2013-03-03 18:11:00,23.2,9.7,30.03,ESE,112,3.4,3.6,56,0.00,,,0.00,WUHU21623XXSP,2013-03-04 00:11:00,
2013-03-03 18:16:00,22.8,9.4,30.03,SE,135,0.0,3.4,56,0.00,,,0.00,WUHU21623XXSP,2013-03-04 00:16:00,
2013-03-03 18:21:00,22.6,9.2,30.03,ESE,112,2.9,2.9,56,0.00,,,0.00,WUHU21623XXSP,2013-03-04 00:21:00,
2013-03-03 18:26:00,22.3,8.9,30.03,ESE,112,0.0,2.9,56,0.00,,,0.00,WUHU21623XXSP,2013-03-04 00:26:00,
2013-03-03 18:31:00,21.7,8.7,30.03,ENE,67,0.0,2.2,57,0.00,,,0.00,WUHU21623XXSP,2013-03-04 00:31:00,
2013-03-03 18:36:00,21.4,8.4,30.03,East,90,0.0,0.0,57,0.00,,,0.00,WUHU21623XXSP,2013-03-04 00:36:00,
2013-03-03 18:41:00,21.0,8.5,30.03,ESE,112,0.0,0.0,58,0.00,,,0.00,WUHU21623XXSP,2013-03-04 00:41:00,
2013-03-03 18:46:00,20.1,7.6,30.03,SW,225,0.0,0.0,58,0.00,,,0.00,WUHU21623XXSP,2013-03-04 00:46:00,
2013-03-03 18:51:00,19.2,7.1,30.04,South,180,0.0,0.0,59,0.00,,,0.00,WUHU21623XXSP,2013-03-04 00:51:00,
2013-03-03 18:56:00,19.2,7.1,30.03,SSE,157,0.0,0.0,59,0.00,,,0.00,WUHU21623XXSP,2013-03-04 00:56:00,
2013-03-03 19:01:00,19.0,7.4,30.04,SSE,157,0.0,0.0,60,0.00,,,0.00,WUHU21623XXSP,2013-03-04 01:01:00,
2013-03-03 19:06:00,19.2,7.5,30.03,ESE,112,0.0,0.0,60,0.00,,,0.00,WUHU21623XXSP,2013-03-04 01:06:00,
2013-03-03 19:11:00,19.0,7.7,30.04,ESE,112,0.0,0.0,61,0.00,,,0.00,WUHU21623XXSP,2013-03-04 01:11:00,
2013-03-03 19:16:00,18.3,7.1,30.04,ESE,112,0.0,0.0,61,0.00,,,0.00,WUHU21623XXSP,2013-03-04 01:16:00,
2013-03-03 19:21:00,17.2,6.1,30.04,SSW,202,0.7,2.9,61,0.00,,,0.00,WUHU21623XXSP,2013-03-04 01:21:00,
2013-03-03 19:26:00,16.5,5.7,30.04,SSW,202,0.0,2.9,62,0.00,,,0.00,WUHU21623XXSP,2013-03-04 01:26:00,
2013-03-03 19:31:00,16.3,5.8,30.05,SSE,157,0.0,0.0,63,0.00,,,0.00,WUHU21623XXSP,2013-03-04 01:31:00,
2013-03-03 19:36:00,16.3,5.8,30.04,NE,45,0.0,0.0,63,0.00,,,0.00,WUHU21623XXSP,2013-03-04 01:36:00,
2013-03-03 19:41:00,15.4,5.0,30.04,NE,45,0.0,0.0,63,0.00,,,0.00,WUHU21623XXSP,2013-03-04 01:41:00,
2013-03-03 19:46:00,14.4,4.4,30.04,NE,45,0.0,0.0,64,0.00,,,0.00,WUHU21623XXSP,2013-03-04 01:46:00,
2013-03-03 19:51:00,13.8,4.2,30.04,NE,45,0.0,0.0,65,0.00,,,0.00,WUHU21623XXSP,2013-03-04 01:51:00,
2013-03-03 19:56:00,13.6,4.4,30.04,NE,45,0.0,0.0,66,0.00,,,0.00,WUHU21623XXSP,2013-03-04 01:56:00,
2013-03-03 20:01:00,14.2,4.9,30.05,NE,45,0.0,0.0,67,0.00,,,0.00,WUHU21623XXSP,2013-03-04 02:01:00,
2013-03-03 20:06:00,13.8,4.9,30.05,SSW,202,0.0,0.0,67,0.00,,,0.00,WUHU21623XXSP,2013-03-04 02:06:00,
2013-03-03 20:11:00,13.6,4.7,30.04,SSW,202,0.0,0.0,67,0.00,,,0.00,WUHU21623XXSP,2013-03-04 02:11:00,
2013-03-03 20:16:00,12.7,4.2,30.04,SSW,202,0.0,0.0,67,0.00,,,0.00,WUHU21623XXSP,2013-03-04 02:16:00,
2013-03-03 20:21:00,12.0,3.1,30.04,SSW,202,0.0,0.0,67,0.00,,,0.00,WUHU21623XXSP,2013-03-04 02:21:00,
2013-03-03 20:26:00,11.7,3.2,30.04,SSW,202,0.0,0.0,68,0.00,,,0.00,WUHU21623XXSP,2013-03-04 02:26:00,
2013-03-03 20:31:00,11.1,2.7,30.05,NNW,337,0.0,0.0,69,0.00,,,0.00,WUHU21623XXSP,2013-03-04 02:31:00,
2013-03-03 20:36:00,10.8,3.0,30.05,North,0,0.0,0.0,70,0.00,,,0.00,WUHU21623XXSP,2013-03-04 02:36:00,
2013-03-03 20:41:00,10.2,2.3,30.05,North,0,0.0,0.0,70,0.00,,,0.00,WUHU21623XXSP,2013-03-04 02:41:00,
2013-03-03 20:46:00,10.0,2.4,30.05,North,0,0.0,0.0,71,0.00,,,0.00,WUHU21623XXSP,2013-03-04 02:46:00,
2013-03-03 20:51:00,10.0,2.7,30.05,NNW,337,0.0,0.0,72,0.00,,,0.00,WUHU21623XXSP,2013-03-04 02:51:00,
2013-03-03 20:56:00,10.0,2.7,30.05,SW,225,0.7,2.9,72,0.00,,,0.00,WUHU21623XXSP,2013-03-04 02:56:00,
2013-03-03 21:01:00,10.2,3.2,30.06,WSW,247,0.0,2.9,73,0.00,,,0.00,WUHU21623XXSP,2013-03-04 03:01:00,
2013-03-03 21:06:00,10.0,3.0,30.06,NNE,22,0.0,0.0,73,0.00,,,0.00,WUHU21623XXSP,2013-03-04 03:06:00,
2013-03-03 21:11:00,9.5,2.2,30.05,NNE,22,0.0,0.0,72,0.00,,,0.00,WUHU21623XXSP,2013-03-04 03:11:00,
2013-03-03 21:16:00,8.8,1.3,30.05,NNE,22,0.0,0.0,71,0.00,,,0.00,WUHU21623XXSP,2013-03-04 03:16:00,
2013-03-03 21:21:00,8.4,1.3,30.05,NNE,22,0.0,0.0,72,0.00,,,0.00,WUHU21623XXSP,2013-03-04 03:21:00,
2013-03-03 21:26:00,7.7,0.8,30.05,NNE,22,0.0,0.0,73,0.00,,,0.00,WUHU21623XXSP,2013-03-04 03:26:00,
2013-03-03 21:31:00,7.5,0.9,30.05,North,0,0.0,0.0,74,0.00,,,0.00,WUHU21623XXSP,2013-03-04 03:31:00,
2013-03-03 21:36:00,7.9,1.3,30.05,WSW,247,0.0,0.0,74,0.00,,,0.00,WUHU21623XXSP,2013-03-04 03:36:00,
2013-03-03 21:41:00,7.5,0.6,30.04,North,0,0.0,0.0,73,0.00,,,0.00,WUHU21623XXSP,2013-03-04 03:41:00,
2013-03-03 21:46:00,6.6,0.0,30.05,NNE,22,0.0,0.0,74,0.00,,,0.00,WUHU21623XXSP,2013-03-04 03:46:00,
2013-03-03 21:51:00,6.1,-0.5,30.04,NNE,22,0.0,0.0,74,0.00,,,0.00,WUHU21623XXSP,2013-03-04 03:51:00,
2013-03-03 21:56:00,5.9,-0.4,30.04,NNE,22,0.0,0.0,75,0.00,,,0.00,WUHU21623XXSP,2013-03-04 03:56:00,
2013-03-03 22:01:00,6.4,0.1,30.04,NNE,22,0.0,0.0,75,0.00,,,0.00,WUHU21623XXSP,2013-03-04 04:01:00,
2013-03-03 22:06:00,6.6,0.6,30.04,NNE,22,0.0,0.0,76,0.00,,,0.00,WUHU21623XXSP,2013-03-04 04:06:00,
2013-03-03 22:11:00,7.0,1.0,30.04,NNE,22,0.0,0.0,76,0.00,,,0.00,WUHU21623XXSP,2013-03-04 04:11:00,
2013-03-03 22:16:00,6.6,0.6,30.03,NNW,337,0.0,0.0,76,0.00,,,0.00,WUHU21623XXSP,2013-03-04 04:16:00,
2013-03-03 22:21:00,7.0,1.3,30.03,SW,225,0.0,0.0,77,0.00,,,0.00,WUHU21623XXSP,2013-03-04 04:21:00,
2013-03-03 22:26:00,7.0,1.3,30.03,SW,225,3.1,3.6,77,0.00,,,0.00,WUHU21623XXSP,2013-03-04 04:26:00,
2013-03-03 22:31:00,7.0,1.3,30.03,NE,45,0.0,3.6,77,0.00,,,0.00,WUHU21623XXSP,2013-03-04 04:31:00,
2013-03-03 22:36:00,7.0,0.7,30.03,NNE,22,0.0,0.0,75,0.00,,,0.00,WUHU21623XXSP,2013-03-04 04:36:00,
2013-03-03 22:41:00,6.4,0.4,30.03,SW,225,0.0,0.0,76,0.00,,,0.00,WUHU21623XXSP,2013-03-04 04:41:00,
2013-03-03 22:46:00,6.4,0.4,30.04,WSW,247,0.0,0.0,76,0.00,,,0.00,WUHU21623XXSP,2013-03-04 04:46:00,
2013-03-03 22:51:00,6.4,0.7,30.04,WSW,247,0.0,0.0,77,0.00,,,0.00,WUHU21623XXSP,2013-03-04 04:51:00,
2013-03-03 22:56:00,6.6,0.7,30.04,WSW,247,0.0,0.0,78,0.00,,,0.00,WUHU21623XXSP,2013-03-04 04:56:00,
2013-03-03 23:00:00,6.6,1.2,30.04,WSW,247,0.0,0.0,77,0.00,,,0.00,WUHU21623XXSP,2013-03-04 05:00:00,
2013-03-03 23:05:00,6.6,0.6,30.04,SSE,157,0.0,0.0,76,0.00,,,0.00,WUHU21623XXSP,2013-03-04 05:05:00,
2013-03-03 23:10:00,6.1,0.4,30.04,SSE,157,0.0,0.0,77,0.00,,,0.00,WUHU21623XXSP,2013-03-04 05:10:00,
2013-03-03 23:15:00,5.7,0.0,30.04,ENE,67,0.0,0.0,77,0.00,,,0.00,WUHU21623XXSP,2013-03-04 05:15:00,
2013-03-03 23:20:00,5.5,-0.2,30.04,ENE,67,0.0,0.0,77,0.00,,,0.00,WUHU21623XXSP,2013-03-04 05:20:00,
2013-03-03 23:25:00,5.4,-0.2,30.03,ENE,67,0.0,0.0,77,0.00,,,0.00,WUHU21623XXSP,2013-03-04 05:25:00,
2013-03-03 23:30:00,5.2,-0.4,30.03,ENE,67,0.0,0.0,77,0.00,,,0.00,WUHU21623XXSP,2013-03-04 05:30:00,
2013-03-03 23:35:00,5.2,-0.5,30.03,ENE,67,0.0,0.0,78,0.00,,,0.00,WUHU21623XXSP,2013-03-04 05:35:00,
2013-03-03 23:40:00,5.2,-0.3,30.03,ENE,67,0.0,0.0,78,0.00,,,0.00,WUHU21623XXSP,2013-03-04 05:40:00,
2013-03-03 23:45:00,5.5,0.1,30.03,ENE,67,0.0,0.0,78,0.00,,,0.00,WUHU21623XXSP,2013-03-04 05:45:00,
2013-03-03 23:50:00,5.7,0.3,30.03,ENE,67,0.0,0.0,78,0.00,,,0.00,WUHU21623XXSP,2013-03-04 05:50:00,
2013-03-03 23:55:00,5.5,0.1,30.03,ENE,67,0.0,0.0,78,0.00,,,0.00,WUHU21623XXSP,2013-03-04 05:55:00,